Boeing 737-8ASW from Ryanair at Eindhoven.
 Regi:EI-FZL  LARGER
 MSN Year:44784 2017-04
 Date of picture:2019-04-11 10:25
 Position:03
 Flight: ARR ALC FR7522 Alicante Elche Airport Spain
 Logs: ALC Alicante FR7522 Ryanair 10:25 AM landed 10:16
2019/04/11 09:18 RYR5YP RYR5YP - EI-FZL a/c registered in Ireland Ryanair B738
 Notam EHEH M0492/19 Military 03/05/2019 0910 06/05/2019 2359 CRANE ERECTED AT EINDHOVEN PSN 512738N0052358E (EHEH ARP RDL056 2100M) ELEVATION 234FT AMSL (HEIGHT 160FT AGL). ICAO MARKED.
 Metar 11/04/2019 10:25 METAR EHEH 111025Z AUTO 05009KT 360V080 //// HZ NCD 09/M01 Q1024 04010KT 9999 FEW040=
 Hits: 22 ID: 2324

Debriefing: Photographed movements of Airports in NW-Europe.
The images of our site attendant is in authorisation from Queen of Sky.
Copying of images of this site have been prohibited in which manner without the authorisation of the photographer.
In behalf of the crew :"Thank you visiting us" - Contact
Factsheets Boeing, 737-8ASW, Ryanair, made by De Plane! © 2006 - 2022 All rights reserved


.